createdAt,value
2023-02-19T00:01:46.891Z,10.60
2023-02-19T00:04:17.256Z,11.10
2023-02-19T00:06:45.845Z,10.60
2023-02-19T00:09:15.139Z,10.60
2023-02-19T00:11:43.082Z,10.70
2023-02-19T00:14:15.280Z,10.60
2023-02-19T00:16:43.136Z,10.60
2023-02-19T00:19:14.547Z,10.60
2023-02-19T00:21:42.339Z,10.70
2023-02-19T00:24:12.512Z,11.00
2023-02-19T00:26:41.435Z,12.00
2023-02-19T00:29:12.963Z,10.60
2023-02-19T00:31:40.541Z,11.00
2023-02-19T00:34:10.614Z,10.90
2023-02-19T00:36:40.609Z,10.60
2023-02-19T00:39:11.111Z,10.60
2023-02-19T00:41:38.524Z,10.20
2023-02-19T00:44:08.335Z,11.10
2023-02-19T00:46:38.645Z,12.80
2023-02-19T00:49:08.670Z,10.50
2023-02-19T00:51:38.294Z,10.50
2023-02-19T00:54:06.452Z,11.50
2023-02-19T00:56:34.110Z,11.20
2023-02-19T00:59:01.717Z,10.80
2023-02-19T01:01:29.151Z,12.10
2023-02-19T01:03:56.560Z,11.90
2023-02-19T01:06:24.575Z,10.60
2023-02-19T01:08:52.024Z,11.10
2023-02-19T01:11:20.375Z,10.50
2023-02-19T01:13:48.241Z,12.00
2023-02-19T01:16:23.922Z,12.00
2023-02-19T01:18:51.863Z,10.60
2023-02-19T01:21:24.993Z,11.30
2023-02-19T01:23:52.997Z,11.00
2023-02-19T01:26:23.475Z,10.70
2023-02-19T01:28:51.102Z,10.70
2023-02-19T01:31:22.537Z,10.60
2023-02-19T01:33:56.221Z,11.70
2023-02-19T01:36:24.252Z,10.70
2023-02-19T01:38:51.790Z,10.90
2023-02-19T01:41:22.722Z,10.60
2023-02-19T01:44:00.505Z,10.70
2023-02-19T01:46:35.638Z,10.60
2023-02-19T01:49:08.086Z,11.40
2023-02-19T01:51:39.248Z,11.40
2023-02-19T01:54:09.824Z,11.10
2023-02-19T01:56:40.468Z,10.60
2023-02-19T01:59:08.410Z,10.70
2023-02-19T02:01:38.693Z,11.10
2023-02-19T02:04:07.922Z,10.50
2023-02-19T02:06:44.836Z,10.50
2023-02-19T02:09:31.430Z,10.50
2023-02-19T02:11:59.104Z,11.30
2023-02-19T02:14:31.225Z,11.10
2023-02-19T02:17:17.900Z,10.50
2023-02-19T02:19:48.229Z,10.50
2023-02-19T02:22:31.475Z,11.30
2023-02-19T02:25:17.299Z,10.50
2023-02-19T02:28:15.082Z,10.50
2023-02-19T02:30:50.709Z,10.50
2023-02-19T02:33:22.319Z,11.90
2023-02-19T02:36:09.005Z,10.50
2023-02-19T02:38:42.750Z,11.30
2023-02-19T02:41:11.891Z,10.50
2023-02-19T02:43:40.086Z,10.40
2023-02-19T02:46:12.280Z,12.00
2023-02-19T02:48:55.423Z,10.60
2023-02-19T02:51:28.593Z,10.50
2023-02-19T02:54:44.608Z,11.90
2023-02-19T02:57:16.003Z,11.40
2023-02-19T02:59:49.188Z,10.30
2023-02-19T03:02:24.339Z,12.20
2023-02-19T03:05:24.939Z,11.20
2023-02-19T03:08:12.997Z,10.20
2023-02-19T03:10:45.887Z,10.20
2023-02-19T03:13:43.702Z,10.90
2023-02-19T03:16:38.257Z,11.00
2023-02-19T03:19:20.662Z,10.20
2023-02-19T03:22:01.226Z,10.20
2023-02-19T03:28:56.919Z,11.60
2023-02-19T03:31:27.103Z,10.20
2023-02-19T03:33:59.626Z,10.40
2023-02-19T03:41:22.263Z,10.20
2023-02-19T03:44:16.951Z,10.10
2023-02-19T03:47:03.734Z,10.20
2023-02-19T03:49:59.229Z,10.20
2023-02-19T03:52:56.259Z,10.20
2023-02-19T03:55:30.290Z,10.20
2023-02-19T03:58:24.869Z,10.20
2023-02-19T04:00:57.184Z,10.20
2023-02-19T04:03:29.594Z,11.60
2023-02-19T04:06:02.648Z,10.40
2023-02-19T04:08:34.276Z,10.80
2023-02-19T04:11:05.417Z,11.60
2023-02-19T04:13:50.902Z,10.20
2023-02-19T04:16:22.605Z,10.20
2023-02-19T04:18:52.969Z,10.20
2023-02-19T04:21:22.783Z,10.60
2023-02-19T04:23:50.225Z,10.30
2023-02-19T04:26:20.142Z,11.30
2023-02-19T04:28:47.659Z,10.60
2023-02-19T04:31:15.290Z,11.00
2023-02-19T04:33:42.737Z,10.40
2023-02-19T04:36:11.031Z,10.40
2023-02-19T04:38:38.621Z,10.20
2023-02-19T04:41:06.026Z,10.20
2023-02-19T04:43:33.408Z,10.60
2023-02-19T04:46:02.029Z,10.20
2023-02-19T04:48:29.646Z,10.70
2023-02-19T04:50:57.187Z,10.20
2023-02-19T04:53:24.797Z,11.10
2023-02-19T04:55:53.464Z,11.60
2023-02-19T04:58:21.333Z,10.80
2023-02-19T05:00:52.318Z,11.10
2023-02-19T05:03:19.793Z,11.00
2023-02-19T05:05:48.668Z,10.10
2023-02-19T05:08:16.107Z,10.60
2023-02-19T05:10:43.496Z,10.10
2023-02-19T05:13:10.947Z,10.60
2023-02-19T05:15:38.559Z,10.30
2023-02-19T05:18:06.040Z,10.60
2023-02-19T05:20:33.432Z,10.10
2023-02-19T05:23:00.770Z,10.10
2023-02-19T05:25:28.127Z,11.50
2023-02-19T05:28:15.426Z,10.10
2023-02-19T05:30:52.397Z,10.90
2023-02-19T05:33:21.827Z,10.10
2023-02-19T05:35:54.829Z,10.50
2023-02-19T05:38:23.103Z,11.00
2023-02-19T05:40:50.505Z,11.70
2023-02-19T05:43:18.195Z,10.10
2023-02-19T05:45:45.586Z,9.40
2023-02-19T05:48:12.992Z,10.50
2023-02-19T05:50:40.391Z,9.90
2023-02-19T05:53:13.351Z,10.10
2023-02-19T05:55:40.749Z,10.10
2023-02-19T05:58:08.130Z,10.70
2023-02-19T06:00:35.577Z,10.10
2023-02-19T06:03:04.209Z,11.50
2023-02-19T06:05:31.602Z,10.10
2023-02-19T06:07:58.981Z,10.40
2023-02-19T06:10:28.267Z,10.10
2023-02-19T06:12:55.626Z,10.00
2023-02-19T06:15:23.062Z,10.20
2023-02-19T06:17:50.477Z,10.80
2023-02-19T06:20:18.073Z,10.00
2023-02-19T06:22:45.402Z,10.00
2023-02-19T06:25:12.818Z,11.30
2023-02-19T06:27:40.249Z,11.20
2023-02-19T06:30:08.881Z,10.00
2023-02-19T06:32:36.309Z,10.00
2023-02-19T06:35:04.281Z,10.00
2023-02-19T06:37:31.713Z,10.00
2023-02-19T06:39:59.141Z,11.50
2023-02-19T06:42:26.517Z,10.90
2023-02-19T06:44:53.961Z,11.20
2023-02-19T06:47:22.831Z,9.90
2023-02-19T06:49:51.118Z,10.80
2023-02-19T06:52:18.422Z,11.40
2023-02-19T06:54:45.797Z,8.20
2023-02-19T06:57:13.189Z,9.80
2023-02-19T06:59:40.555Z,10.70
2023-02-19T07:02:11.341Z,9.90
2023-02-19T07:04:38.841Z,9.90
2023-02-19T07:07:06.233Z,10.10
2023-02-19T07:09:33.611Z,10.30
2023-02-19T07:12:00.966Z,10.80
2023-02-19T07:14:29.697Z,9.90
2023-02-19T07:16:57.102Z,9.90
2023-02-19T07:19:24.501Z,11.00
2023-02-19T07:21:51.861Z,11.20
2023-02-19T07:24:21.896Z,10.50
2023-02-19T07:26:49.282Z,9.90
2023-02-19T07:29:16.715Z,11.80
2023-02-19T07:31:44.444Z,9.90
2023-02-19T07:34:11.918Z,8.50
2023-02-19T07:36:39.361Z,11.60
2023-02-19T07:39:08.600Z,10.50
2023-02-19T07:41:37.333Z,7.90
2023-02-19T07:44:06.680Z,10.00
2023-02-19T07:46:34.070Z,10.00
2023-02-19T07:49:01.590Z,12.10
2023-02-19T07:51:28.924Z,10.10
2023-02-19T07:53:56.289Z,10.80
2023-02-19T07:56:23.710Z,10.00
2023-02-19T07:58:51.253Z,11.10
2023-02-19T08:01:44.191Z,10.00
2023-02-19T08:04:13.715Z,9.90
2023-02-19T08:06:42.048Z,10.00
2023-02-19T08:09:09.574Z,10.00
2023-02-19T08:11:55.396Z,10.50
2023-02-19T08:14:27.603Z,11.90
2023-02-19T08:16:55.497Z,10.10
2023-02-19T08:19:23.417Z,9.70
2023-02-19T08:21:50.745Z,11.00
2023-02-19T08:24:18.162Z,11.90
2023-02-19T08:26:45.606Z,10.00
2023-02-19T08:29:13.045Z,10.00
2023-02-19T08:31:40.488Z,11.60
2023-02-19T08:34:07.916Z,10.40
2023-02-19T08:36:35.333Z,10.00
2023-02-19T08:39:02.730Z,10.20
2023-02-19T08:41:30.140Z,10.30
2023-02-19T08:43:57.591Z,10.50
2023-02-19T08:46:25.340Z,10.20
2023-02-19T08:48:52.802Z,10.30
2023-02-19T08:51:20.287Z,10.30
2023-02-19T08:53:47.827Z,11.60
2023-02-19T08:56:16.354Z,10.30
2023-02-19T08:58:44.504Z,10.30
2023-02-19T09:01:14.775Z,10.40
2023-02-19T09:03:42.724Z,11.30
2023-02-19T09:06:16.250Z,10.30
2023-02-19T09:08:43.817Z,10.40
2023-02-19T09:11:11.500Z,10.30
2023-02-19T09:13:39.050Z,10.40
2023-02-19T09:16:06.868Z,10.30
2023-02-19T09:18:34.785Z,10.40
2023-02-19T09:21:04.738Z,10.60
2023-02-19T09:23:36.913Z,10.40
2023-02-19T09:26:08.695Z,10.50
2023-02-19T09:28:36.570Z,11.40
2023-02-19T09:31:06.138Z,10.60
2023-02-19T09:33:34.262Z,10.60
2023-02-19T09:36:02.158Z,10.70
2023-02-19T09:38:30.908Z,10.60
2023-02-19T09:40:59.736Z,12.10
2023-02-19T09:43:29.406Z,10.60
2023-02-19T09:46:10.192Z,10.70
2023-02-19T09:48:37.843Z,10.70
2023-02-19T09:51:07.289Z,10.80
2023-02-19T09:53:41.963Z,10.70
2023-02-19T09:56:09.670Z,12.40
2023-02-19T09:58:48.295Z,11.20
2023-02-19T10:01:16.168Z,11.90
2023-02-19T10:03:48.711Z,13.10
2023-02-19T10:06:25.968Z,10.50
2023-02-19T10:09:00.002Z,10.90
2023-02-19T10:11:27.791Z,10.60
2023-02-19T10:14:12.656Z,10.70
2023-02-19T10:16:42.276Z,10.50
2023-02-19T10:19:11.901Z,10.90
2023-02-19T10:21:39.989Z,10.70
2023-02-19T10:24:08.455Z,11.70
2023-02-19T10:26:36.867Z,10.50
2023-02-19T10:29:05.126Z,10.60
2023-02-19T10:31:33.759Z,11.20
2023-02-19T10:34:02.178Z,10.80
2023-02-19T10:36:40.458Z,10.60
2023-02-19T10:39:22.356Z,10.60
2023-02-19T10:41:51.022Z,10.50
2023-02-19T10:44:46.083Z,11.00
2023-02-19T10:47:21.640Z,10.50
2023-02-19T10:49:50.896Z,10.40
2023-02-19T10:52:24.323Z,11.80
2023-02-19T10:54:56.254Z,11.20
2023-02-19T10:57:30.591Z,10.20
2023-02-19T11:00:13.487Z,11.50
2023-02-19T11:02:42.027Z,10.20
2023-02-19T11:05:09.542Z,10.70
2023-02-19T11:07:39.369Z,11.30
2023-02-19T11:10:07.331Z,12.10
2023-02-19T11:12:35.428Z,10.50
2023-02-19T11:15:25.227Z,12.50
2023-02-19T11:18:26.543Z,10.60
2023-02-19T11:21:01.028Z,10.80
2023-02-19T11:23:30.123Z,10.80
2023-02-19T11:26:01.624Z,10.90
2023-02-19T11:28:39.670Z,11.10
2023-02-19T11:31:20.631Z,10.90
2023-02-19T11:33:54.640Z,12.50
2023-02-19T11:36:37.654Z,10.90
2023-02-19T11:39:21.928Z,11.70
2023-02-19T11:42:01.320Z,10.50
2023-02-19T11:44:56.487Z,10.60
2023-02-19T11:48:06.220Z,10.50
2023-02-19T11:51:05.678Z,10.50
2023-02-19T11:53:37.272Z,10.60
2023-02-19T11:56:20.838Z,10.50
2023-02-19T11:59:00.853Z,11.50
2023-02-19T12:01:54.322Z,10.50
2023-02-19T12:05:02.605Z,10.40
2023-02-19T12:07:59.832Z,10.50
2023-02-19T12:11:05.998Z,10.50
2023-02-19T12:14:15.556Z,10.70
2023-02-19T12:17:05.439Z,11.00
2023-02-19T12:20:14.167Z,10.90
2023-02-19T12:23:20.307Z,10.90
2023-02-19T12:25:52.469Z,11.00
2023-02-19T12:28:58.005Z,11.30
2023-02-19T12:32:35.043Z,11.10
2023-02-19T12:39:51.834Z,11.30
2023-02-19T12:42:55.775Z,11.60
2023-02-19T12:46:21.849Z,11.50
2023-02-19T12:49:05.870Z,11.60
2023-02-19T12:51:45.706Z,11.60
2023-02-19T12:54:15.156Z,11.50
2023-02-19T13:01:13.112Z,11.40
2023-02-19T13:12:49.844Z,11.90
2023-02-19T13:15:42.275Z,10.70
2023-02-19T13:18:20.369Z,10.50
2023-02-19T13:20:48.931Z,10.40
2023-02-19T13:27:49.536Z,11.00
2023-02-19T13:30:26.558Z,10.20
2023-02-19T13:37:35.221Z,10.10
2023-02-19T13:44:33.016Z,9.80
2023-02-19T13:47:51.507Z,9.70
2023-02-19T13:50:26.418Z,9.60
2023-02-19T13:57:47.031Z,9.50
2023-02-19T14:00:51.902Z,9.50
2023-02-19T14:04:48.028Z,9.50
2023-02-19T14:07:15.314Z,9.10
2023-02-19T14:09:45.517Z,9.30
2023-02-19T14:12:16.035Z,9.70
2023-02-19T14:14:55.833Z,9.50
2023-02-19T14:17:42.585Z,9.50
2023-02-19T14:20:09.936Z,9.60
2023-02-19T14:22:52.053Z,9.50
2023-02-19T14:30:19.895Z,9.60
2023-02-19T14:37:23.252Z,9.80
2023-02-19T14:40:21.226Z,9.80
2023-02-19T14:42:53.313Z,10.60
2023-02-19T14:50:32.340Z,9.90
2023-02-19T14:53:04.295Z,10.00
2023-02-19T14:55:50.090Z,9.90
2023-02-19T14:58:40.648Z,9.90
2023-02-19T15:01:46.428Z,9.80
2023-02-19T15:22:48.629Z,9.90
2023-02-19T15:25:49.427Z,9.70
2023-02-19T15:32:55.702Z,9.50
2023-02-19T15:35:25.121Z,9.40
2023-02-19T15:37:55.119Z,9.40
2023-02-19T15:44:51.712Z,7.00
2023-02-19T15:47:51.335Z,10.20
2023-02-19T15:50:29.553Z,9.20
2023-02-19T15:53:00.586Z,9.00
2023-02-19T15:59:45.827Z,9.10
2023-02-19T16:02:15.445Z,9.10
2023-02-19T16:04:50.030Z,8.80
2023-02-19T16:08:12.299Z,9.10
2023-02-19T16:10:39.729Z,9.10
2023-02-19T16:13:08.505Z,10.30
2023-02-19T16:15:36.289Z,7.50
2023-02-19T16:18:15.460Z,9.60
2023-02-19T16:26:00.000Z,9.10
2023-02-19T16:28:31.078Z,8.90
2023-02-19T16:31:21.161Z,9.60
2023-02-19T16:38:34.376Z,8.80
2023-02-19T16:42:14.552Z,8.60
2023-02-19T16:44:42.290Z,8.70
2023-02-19T16:47:51.368Z,8.60
2023-02-19T16:54:57.696Z,8.50
2023-02-19T16:57:43.603Z,8.40
2023-02-19T17:50:34.407Z,8.10
2023-02-19T20:51:12.576Z,6.50
2023-02-19T21:33:39.607Z,6.20
2023-02-19T21:40:30.125Z,6.20
2023-02-19T21:42:58.054Z,6.20
2023-02-19T21:45:25.639Z,7.90
2023-02-19T21:47:56.378Z,6.30
2023-02-19T21:50:24.055Z,6.50
2023-02-19T21:52:51.465Z,6.30
2023-02-19T21:55:19.082Z,5.80
2023-02-19T21:57:49.680Z,6.10
2023-02-19T22:00:17.769Z,6.30
2023-02-19T22:02:45.390Z,6.20
2023-02-19T22:05:15.269Z,7.10
2023-02-19T22:07:42.914Z,6.40
2023-02-19T22:10:10.678Z,7.90
2023-02-19T22:12:38.173Z,6.30
2023-02-19T22:15:05.862Z,6.30
2023-02-19T22:18:53.800Z,6.20
